Time;durP1;ratioP1;P1;durP2;ratioP2;P2;SDS_P1;SDS_P2;PMS_P1;PMS_P2;Temp;Humidity;BMP_temperature;BMP_pressure;BME280_temperature;BME280_humidity;BME280_pressure;Samples;Min_cycle;Max_cycle;Signal;HPM_P1;HPM_P2
2022/10/21 00:02:15;;;;;;;15.02;5.38;;;;;;;;;;5028355;28;20037;-78
2022/10/21 00:04:41;;;;;;;13.73;4.22;;;;;;;;;;5026497;28;20068;-78
2022/10/21 00:07:07;;;;;;;18.10;4.78;;;;;;;;;;5029458;28;20032;-78
2022/10/21 00:09:33;;;;;;;11.13;3.60;;;;;;;;;;5031580;28;20079;-78
2022/10/21 00:11:59;;;;;;;9.80;3.88;;;;;;;;;;5023996;28;20037;-77
2022/10/21 00:14:25;;;;;;;11.30;3.90;;;;;;;;;;5029029;28;20040;-76
2022/10/21 00:16:51;;;;;;;14.73;4.13;;;;;;;;;;5026841;28;20451;-78
2022/10/21 00:19:17;;;;;;;12.05;4.40;;;;;;;;;;5031584;28;20068;-77
2022/10/21 00:21:44;;;;;;;11.45;3.53;;;;;;;;;;5024042;28;20026;-79
2022/10/21 00:24:10;;;;;;;11.65;3.88;;;;;;;;;;5046114;28;20041;-78
2022/10/21 00:26:36;;;;;;;12.32;4.57;;;;;;;;;;5031500;28;20048;-79
2022/10/21 00:29:02;;;;;;;9.93;3.42;;;;;;;;;;5044252;28;20594;-78
2022/10/21 00:31:29;;;;;;;12.32;4.60;;;;;;;;;;5028576;28;20046;-78
2022/10/21 00:33:55;;;;;;;11.05;4.78;;;;;;;;;;5038222;28;20032;-78
2022/10/21 00:36:21;;;;;;;11.98;4.10;;;;;;;;;;5024783;28;20389;-78
2022/10/21 00:38:48;;;;;;;7.50;3.63;;;;;;;;;;5034583;28;20033;-78
2022/10/21 00:41:15;;;;;;;10.77;4.93;;;;;;;;;;5035054;28;20030;-78
2022/10/21 00:43:55;;;;;;;11.48;5.25;;;;;;;;;;5030152;28;20152;-77
2022/10/21 00:46:24;;;;;;;15.70;4.65;;;;;;;;;;5036474;28;20124;-78
2022/10/21 00:48:53;;;;;;;11.75;4.10;;;;;;;;;;5034733;28;20678;-78
2022/10/21 00:51:20;;;;;;;13.38;3.97;;;;;;;;;;5035720;28;20029;-77
2022/10/21 00:53:48;;;;;;;11.57;4.63;;;;;;;;;;5034339;28;20761;-78
2022/10/21 00:56:26;;;;;;;12.10;4.95;;;;;;;;;;5051407;28;20053;-78
2022/10/21 00:58:53;;;;;;;12.38;5.40;;;;;;;;;;5033348;28;20036;-77
2022/10/21 01:01:20;;;;;;;9.35;4.63;;;;;;;;;;5033421;28;21746;-77
2022/10/21 01:03:46;;;;;;;15.98;5.68;;;;;;;;;;5031948;28;20033;-78
2022/10/21 01:06:13;;;;;;;14.70;4.97;;;;;;;;;;5037924;28;20021;-78
2022/10/21 01:08:39;;;;;;;11.73;4.95;;;;;;;;;;5027219;28;20035;-79
2022/10/21 01:11:06;;;;;;;10.02;4.63;;;;;;;;;;5033606;28;20429;-78
2022/10/21 01:13:33;;;;;;;20.30;5.38;;;;;;;;;;5036223;28;20026;-78
2022/10/21 01:16:05;;;;;;;11.55;4.78;;;;;;;;;;5037734;28;20083;-77
2022/10/21 01:18:51;;;;;;;9.45;4.15;;;;;;;;;;5044575;28;20057;-77
2022/10/21 01:21:26;;;;;;;11.85;4.47;;;;;;;;;;5026735;28;20496;-78
2022/10/21 01:24:11;;;;;;;20.63;5.45;;;;;;;;;;5033814;28;20040;-78
2022/10/21 01:26:56;;;;;;;17.00;5.05;;;;;;;;;;5026449;28;20060;-78
2022/10/21 01:29:34;;;;;;;22.30;5.45;;;;;;;;;;5028459;28;20037;-77
2022/10/21 01:32:12;;;;;;;14.70;5.38;;;;;;;;;;5033408;28;20024;-77
2022/10/21 01:34:38;;;;;;;19.73;5.25;;;;;;;;;;5028863;28;20500;-78
2022/10/21 01:37:10;;;;;;;17.25;4.18;;;;;;;;;;5034577;28;20378;-78
2022/10/21 01:39:54;;;;;;;14.35;4.35;;;;;;;;;;5048708;28;20060;-78
2022/10/21 01:42:26;;;;;;;11.60;4.30;;;;;;;;;;5043844;28;20159;-78
2022/10/21 01:45:00;;;;;;;11.05;4.47;;;;;;;;;;5031338;28;20025;-78
2022/10/21 01:47:37;;;;;;;10.40;5.00;;;;;;;;;;5028427;28;20128;-78
2022/10/21 01:50:06;;;;;;;12.70;4.40;;;;;;;;;;5028413;28;20032;-78
2022/10/21 01:52:32;;;;;;;11.50;4.05;;;;;;;;;;5030172;28;20022;-78
2022/10/21 01:55:05;;;;;;;15.05;4.40;;;;;;;;;;5028066;28;20124;-78
2022/10/21 01:57:35;;;;;;;16.98;5.05;;;;;;;;;;5045918;28;20067;-78
2022/10/21 02:00:01;;;;;;;14.20;4.65;;;;;;;;;;5021878;28;20056;-78
2022/10/21 02:02:28;;;;;;;10.65;5.28;;;;;;;;;;5040271;28;20110;-78
2022/10/21 02:04:56;;;;;;;11.32;4.38;;;;;;;;;;5024995;28;20041;-78
2022/10/21 02:07:22;;;;;;;9.05;4.10;;;;;;;;;;5031123;28;20459;-78
2022/10/21 02:09:48;;;;;;;12.95;4.32;;;;;;;;;;5026155;28;20029;-78
2022/10/21 02:12:15;;;;;;;15.45;6.30;;;;;;;;;;5029630;28;20118;-78
2022/10/21 02:14:44;;;;;;;8.48;4.55;;;;;;;;;;5030601;28;20026;-78
2022/10/21 02:17:12;;;;;;;12.30;4.32;;;;;;;;;;5031131;28;20021;-78
2022/10/21 02:19:38;;;;;;;10.65;4.10;;;;;;;;;;5026357;28;20025;-78
2022/10/21 02:22:05;;;;;;;13.63;3.85;;;;;;;;;;5032320;28;20410;-78
2022/10/21 02:24:50;;;;;;;14.82;4.70;;;;;;;;;;5034903;28;20025;-78
2022/10/21 02:27:16;;;;;;;10.60;4.00;;;;;;;;;;5028161;28;20335;-78
2022/10/21 02:29:43;;;;;;;11.98;4.32;;;;;;;;;;5031079;28;20042;-78
2022/10/21 02:32:12;;;;;;;9.68;3.58;;;;;;;;;;5030169;28;20030;-78
2022/10/21 02:34:41;;;;;;;10.10;3.95;;;;;;;;;;5026427;28;20044;-78
2022/10/21 02:37:27;;;;;;;12.25;3.45;;;;;;;;;;5029865;28;20096;-78
2022/10/21 02:39:57;;;;;;;11.13;4.22;;;;;;;;;;5026418;28;20029;-77
2022/10/21 02:42:26;;;;;;;19.08;3.45;;;;;;;;;;5027375;28;21365;-78
2022/10/21 02:44:52;;;;;;;10.85;4.05;;;;;;;;;;5028900;28;20433;-78
2022/10/21 02:47:19;;;;;;;11.02;3.78;;;;;;;;;;5024033;28;20056;-78
2022/10/21 02:49:45;;;;;;;10.27;3.38;;;;;;;;;;5030950;28;20675;-78
2022/10/21 02:52:11;;;;;;;10.20;3.05;;;;;;;;;;5029730;28;20092;-78
2022/10/21 02:54:37;;;;;;;8.88;3.20;;;;;;;;;;5026520;28;20022;-78
2022/10/21 02:57:03;;;;;;;11.77;3.67;;;;;;;;;;5028439;28;20025;-78
2022/10/21 02:59:29;;;;;;;9.32;3.55;;;;;;;;;;5027727;28;20104;-78
2022/10/21 03:01:56;;;;;;;9.93;3.88;;;;;;;;;;5031754;28;20033;-78
2022/10/21 03:04:22;;;;;;;14.35;4.28;;;;;;;;;;5002749;23;20051;-77
2022/10/21 03:06:48;;;;;;;9.50;3.55;;;;;;;;;;4966619;28;20114;-77
2022/10/21 03:09:14;;;;;;;23.13;4.65;;;;;;;;;;4962664;28;20031;-77
2022/10/21 03:11:40;;;;;;;10.77;3.67;;;;;;;;;;4969685;28;21197;-77
2022/10/21 03:14:06;;;;;;;10.85;3.67;;;;;;;;;;4968723;28;20031;-78
2022/10/21 03:16:32;;;;;;;5.55;3.05;;;;;;;;;;4974157;28;20023;-76
2022/10/21 03:18:58;;;;;;;7.28;2.97;;;;;;;;;;4974443;28;20026;-76
2022/10/21 03:21:24;;;;;;;10.15;3.40;;;;;;;;;;4965920;28;20031;-77
2022/10/21 03:23:50;;;;;;;8.05;2.63;;;;;;;;;;4963328;28;20076;-78
2022/10/21 03:26:16;;;;;;;11.45;2.95;;;;;;;;;;4969695;28;20035;-76
2022/10/21 03:28:42;;;;;;;8.88;2.88;;;;;;;;;;4965203;28;20493;-77
2022/10/21 03:31:08;;;;;;;10.57;2.92;;;;;;;;;;4967736;28;20512;-77
2022/10/21 03:33:34;;;;;;;11.98;2.80;;;;;;;;;;4963535;28;20026;-78
2022/10/21 03:36:00;;;;;;;11.38;2.80;;;;;;;;;;4967460;28;20034;-77
2022/10/21 03:38:26;;;;;;;10.32;4.30;;;;;;;;;;4962929;28;21163;-77
2022/10/21 03:40:52;;;;;;;7.32;2.92;;;;;;;;;;4966570;28;20027;-76
2022/10/21 03:43:18;;;;;;;8.48;2.53;;;;;;;;;;4960034;28;20034;-77
2022/10/21 03:45:44;;;;;;;12.10;3.65;;;;;;;;;;4964481;28;20035;-76
2022/10/21 03:48:10;;;;;;;10.38;4.05;;;;;;;;;;4961299;28;20034;-77
2022/10/21 03:50:37;;;;;;;9.88;3.50;;;;;;;;;;4963460;28;20081;-78
2022/10/21 03:53:03;;;;;;;7.18;2.90;;;;;;;;;;4963154;28;20371;-78
2022/10/21 03:55:29;;;;;;;8.32;2.58;;;;;;;;;;4965146;28;20027;-77
2022/10/21 03:57:55;;;;;;;13.57;2.97;;;;;;;;;;4970325;28;20111;-78
2022/10/21 04:00:21;;;;;;;10.43;3.85;;;;;;;;;;4962322;28;20038;-77
2022/10/21 04:02:47;;;;;;;7.63;2.70;;;;;;;;;;4966752;28;20503;-78
2022/10/21 04:05:14;;;;;;;11.50;2.95;;;;;;;;;;4958034;28;20157;-75
2022/10/21 04:07:40;;;;;;;9.82;3.28;;;;;;;;;;4967780;28;20305;-78
2022/10/21 04:10:07;;;;;;;12.02;2.90;;;;;;;;;;4964161;28;20042;-77
2022/10/21 04:12:33;;;;;;;6.32;2.55;;;;;;;;;;4963161;28;20037;-78
2022/10/21 04:14:59;;;;;;;8.77;3.10;;;;;;;;;;4960770;28;20046;-78
2022/10/21 04:17:25;;;;;;;8.80;2.67;;;;;;;;;;4963609;28;20026;-76
2022/10/21 04:19:51;;;;;;;5.43;2.90;;;;;;;;;;4958924;28;20163;-76
2022/10/21 04:22:17;;;;;;;7.03;2.65;;;;;;;;;;4957239;28;20070;-78
2022/10/21 04:24:43;;;;;;;6.18;3.03;;;;;;;;;;4959975;28;20034;-78
2022/10/21 04:27:09;;;;;;;7.97;2.65;;;;;;;;;;4962828;28;20498;-78
2022/10/21 04:29:36;;;;;;;9.85;3.60;;;;;;;;;;4962649;28;20400;-78
2022/10/21 04:32:02;;;;;;;9.88;3.35;;;;;;;;;;4971667;28;20031;-78
2022/10/21 04:34:28;;;;;;;11.70;2.92;;;;;;;;;;4961816;28;20027;-77
2022/10/21 04:36:54;;;;;;;7.88;3.00;;;;;;;;;;4958578;28;20033;-77
2022/10/21 04:39:20;;;;;;;9.23;3.00;;;;;;;;;;4963844;28;20038;-77
2022/10/21 04:41:48;;;;;;;4.68;3.03;;;;;;;;;;4964141;28;20031;-77
2022/10/21 04:44:14;;;;;;;8.85;2.72;;;;;;;;;;4954049;28;20042;-78
2022/10/21 04:46:40;;;;;;;12.60;3.20;;;;;;;;;;4960872;28;20521;-78
2022/10/21 04:49:07;;;;;;;10.90;3.20;;;;;;;;;;4962716;28;20027;-78
2022/10/21 04:51:33;;;;;;;9.60;2.92;;;;;;;;;;4955844;28;20218;-77
2022/10/21 04:53:59;;;;;;;6.70;2.55;;;;;;;;;;4964378;28;20046;-78
2022/10/21 04:56:25;;;;;;;7.55;3.33;;;;;;;;;;4961132;28;20417;-77
2022/10/21 04:58:51;;;;;;;12.20;3.63;;;;;;;;;;4965071;28;20113;-78
2022/10/21 05:01:17;;;;;;;10.32;3.30;;;;;;;;;;4970883;28;20486;-78
2022/10/21 05:03:43;;;;;;;8.82;2.75;;;;;;;;;;4961765;28;20051;-77
2022/10/21 05:06:09;;;;;;;8.48;2.78;;;;;;;;;;4958372;28;20047;-78
2022/10/21 05:08:35;;;;;;;3.20;2.22;;;;;;;;;;4966215;28;20030;-77
2022/10/21 05:11:02;;;;;;;8.18;3.72;;;;;;;;;;4962809;28;20052;-79
2022/10/21 05:13:29;;;;;;;8.88;4.40;;;;;;;;;;4966270;28;20019;-77
2022/10/21 05:15:58;;;;;;;13.10;3.17;;;;;;;;;;4967004;28;20521;-78
2022/10/21 05:18:25;;;;;;;6.80;2.67;;;;;;;;;;4970155;28;20031;-77
2022/10/21 05:20:52;;;;;;;11.75;3.65;;;;;;;;;;4965288;28;20038;-78
2022/10/21 05:23:18;;;;;;;5.13;3.03;;;;;;;;;;4971415;28;20504;-78
2022/10/21 05:25:45;;;;;;;9.90;3.20;;;;;;;;;;4968172;28;20053;-78
2022/10/21 05:28:11;;;;;;;9.13;2.72;;;;;;;;;;4967146;28;20497;-78
2022/10/21 05:30:37;;;;;;;9.38;3.80;;;;;;;;;;4973599;28;20720;-79
2022/10/21 05:33:03;;;;;;;11.70;3.80;;;;;;;;;;4978035;28;20065;-78
2022/10/21 05:35:29;;;;;;;7.03;2.78;;;;;;;;;;4964689;28;20085;-78
2022/10/21 05:37:56;;;;;;;10.02;3.35;;;;;;;;;;4963171;28;20094;-77
2022/10/21 05:40:22;;;;;;;10.82;3.30;;;;;;;;;;4961118;28;20075;-77
2022/10/21 05:42:48;;;;;;;7.75;2.85;;;;;;;;;;4970808;28;20416;-78
2022/10/21 05:45:14;;;;;;;5.05;2.47;;;;;;;;;;4970831;28;20043;-78
2022/10/21 05:47:40;;;;;;;9.60;3.05;;;;;;;;;;4966775;28;20434;-77
2022/10/21 05:50:07;;;;;;;7.90;2.88;;;;;;;;;;4968889;28;20031;-77
2022/10/21 05:52:33;;;;;;;11.73;3.55;;;;;;;;;;4968142;28;20106;-78
2022/10/21 05:54:59;;;;;;;10.63;3.03;;;;;;;;;;4966314;28;20026;-77
2022/10/21 05:57:25;;;;;;;12.32;3.40;;;;;;;;;;4962418;28;20493;-77
2022/10/21 05:59:51;;;;;;;17.95;5.53;;;;;;;;;;4965712;28;20486;-78
2022/10/21 06:02:17;;;;;;;14.50;3.83;;;;;;;;;;4967071;28;20026;-77
2022/10/21 06:04:43;;;;;;;13.27;3.53;;;;;;;;;;4966956;28;20055;-78
2022/10/21 06:07:09;;;;;;;16.42;3.85;;;;;;;;;;4967224;28;20112;-77
2022/10/21 06:09:36;;;;;;;7.03;3.17;;;;;;;;;;4964567;28;20039;-78
2022/10/21 06:12:02;;;;;;;17.67;5.40;;;;;;;;;;4968430;28;20023;-78
2022/10/21 06:14:28;;;;;;;8.95;3.63;;;;;;;;;;4965729;28;20027;-78
2022/10/21 06:16:55;;;;;;;16.33;3.30;;;;;;;;;;4964393;28;20027;-77
2022/10/21 06:19:21;;;;;;;12.90;3.95;;;;;;;;;;4961166;28;20027;-79
2022/10/21 06:21:47;;;;;;;11.23;3.55;;;;;;;;;;4968794;28;20027;-78
2022/10/21 06:24:14;;;;;;;11.95;3.65;;;;;;;;;;4971326;28;20030;-78
2022/10/21 06:26:40;;;;;;;14.85;2.80;;;;;;;;;;4966979;28;20035;-77
2022/10/21 06:29:06;;;;;;;11.38;3.10;;;;;;;;;;4970783;28;20437;-78
2022/10/21 06:31:32;;;;;;;9.90;3.80;;;;;;;;;;4977299;28;20026;-78
2022/10/21 06:33:58;;;;;;;11.93;3.75;;;;;;;;;;4968135;28;20573;-78
2022/10/21 06:36:24;;;;;;;6.43;3.78;;;;;;;;;;4966464;28;20433;-77
2022/10/21 06:38:50;;;;;;;8.18;2.90;;;;;;;;;;4969970;28;20516;-77
2022/10/21 06:41:17;;;;;;;11.95;3.33;;;;;;;;;;4962295;28;20507;-77
2022/10/21 06:43:43;;;;;;;9.00;3.10;;;;;;;;;;4966699;28;20050;-78
2022/10/21 06:46:11;;;;;;;7.47;2.60;;;;;;;;;;4961895;28;20452;-78
2022/10/21 06:48:37;;;;;;;9.43;4.28;;;;;;;;;;4962741;28;20054;-77
2022/10/21 06:51:04;;;;;;;9.57;4.45;;;;;;;;;;4967148;28;20038;-77
2022/10/21 06:53:31;;;;;;;11.82;4.00;;;;;;;;;;4967489;28;20086;-77
2022/10/21 06:56:00;;;;;;;6.82;3.50;;;;;;;;;;4965710;28;20031;-78
2022/10/21 06:58:27;;;;;;;14.02;3.80;;;;;;;;;;4968769;28;20031;-77
2022/10/21 07:00:53;;;;;;;8.45;2.95;;;;;;;;;;4966202;28;20057;-78
2022/10/21 07:03:19;;;;;;;15.18;4.25;;;;;;;;;;4963994;28;20074;-77
2022/10/21 07:05:45;;;;;;;11.02;4.60;;;;;;;;;;4965581;28;20446;-77
2022/10/21 07:08:11;;;;;;;11.45;3.78;;;;;;;;;;4963028;28;20027;-78
2022/10/21 07:10:37;;;;;;;12.48;5.20;;;;;;;;;;4967935;28;20035;-78
2022/10/21 07:13:03;;;;;;;11.32;3.95;;;;;;;;;;4969889;28;20042;-77
2022/10/21 07:15:29;;;;;;;13.68;4.68;;;;;;;;;;4971998;28;20444;-78
2022/10/21 07:17:59;;;;;;;12.32;5.32;;;;;;;;;;4970796;28;20031;-78
2022/10/21 07:20:26;;;;;;;11.25;3.15;;;;;;;;;;4967549;28;20477;-77
2022/10/21 07:22:52;;;;;;;9.95;4.03;;;;;;;;;;4961610;28;20043;-77
2022/10/21 07:25:18;;;;;;;12.20;4.15;;;;;;;;;;4968510;28;20117;-77
2022/10/21 07:27:44;;;;;;;28.45;4.80;;;;;;;;;;4962275;28;20026;-77
2022/10/21 07:30:11;;;;;;;8.32;3.50;;;;;;;;;;4961110;28;20041;-78
2022/10/21 07:32:37;;;;;;;9.55;3.58;;;;;;;;;;4963303;28;20105;-77
2022/10/21 07:35:03;;;;;;;11.68;5.25;;;;;;;;;;4975172;28;20462;-77
2022/10/21 07:37:29;;;;;;;14.35;4.60;;;;;;;;;;4967520;28;20027;-77
2022/10/21 07:39:55;;;;;;;7.28;3.58;;;;;;;;;;4960131;28;20027;-78
2022/10/21 07:42:23;;;;;;;10.35;2.92;;;;;;;;;;4957937;28;20027;-79
2022/10/21 07:44:51;;;;;;;11.10;4.43;;;;;;;;;;4967198;28;20030;-78
2022/10/21 07:47:18;;;;;;;13.20;3.38;;;;;;;;;;4966400;28;20029;-77
2022/10/21 07:49:44;;;;;;;18.95;4.07;;;;;;;;;;4967070;28;20033;-77
2022/10/21 07:52:10;;;;;;;11.50;3.55;;;;;;;;;;4967843;28;20114;-78
2022/10/21 07:54:36;;;;;;;10.60;3.45;;;;;;;;;;4964608;28;20022;-77
2022/10/21 07:57:02;;;;;;;9.55;4.28;;;;;;;;;;4964459;28;20057;-78
2022/10/21 07:59:28;;;;;;;9.68;3.83;;;;;;;;;;4969477;28;20065;-78
2022/10/21 08:01:54;;;;;;;9.73;3.03;;;;;;;;;;4972327;28;20039;-78
2022/10/21 08:04:22;;;;;;;15.88;3.38;;;;;;;;;;4979893;28;20054;-78
2022/10/21 08:06:48;;;;;;;15.23;3.95;;;;;;;;;;4955624;28;20043;-77
2022/10/21 08:09:14;;;;;;;16.60;3.75;;;;;;;;;;4962389;28;20511;-78
2022/10/21 08:11:40;;;;;;;9.75;3.80;;;;;;;;;;4964316;28;20110;-77
2022/10/21 08:14:07;;;;;;;8.32;3.40;;;;;;;;;;4963535;28;20113;-78
2022/10/21 08:16:34;;;;;;;19.25;4.35;;;;;;;;;;4967188;28;20518;-79
2022/10/21 08:19:00;;;;;;;9.32;3.28;;;;;;;;;;4957516;28;20125;-78
2022/10/21 08:21:27;;;;;;;10.98;3.70;;;;;;;;;;4962279;28;20042;-78
2022/10/21 08:23:53;;;;;;;10.48;3.30;;;;;;;;;;4966952;28;20524;-78
2022/10/21 08:26:19;;;;;;;6.50;3.15;;;;;;;;;;4964481;28;20043;-79
2022/10/21 08:28:45;;;;;;;7.55;3.25;;;;;;;;;;4969763;28;20034;-78
2022/10/21 08:31:13;;;;;;;9.75;3.10;;;;;;;;;;4966819;28;20588;-78
2022/10/21 08:33:39;;;;;;;7.15;3.38;;;;;;;;;;4966015;28;20031;-76
2022/10/21 08:36:09;;;;;;;9.77;2.97;;;;;;;;;;4963981;28;20438;-78
2022/10/21 08:38:35;;;;;;;10.43;3.35;;;;;;;;;;4966918;28;20030;-79
2022/10/21 08:41:02;;;;;;;7.95;3.33;;;;;;;;;;4968040;28;20494;-78
2022/10/21 08:43:31;;;;;;;8.43;3.40;;;;;;;;;;4970288;28;20035;-79
2022/10/21 08:46:13;;;;;;;8.63;2.60;;;;;;;;;;4960229;28;20119;-78
2022/10/21 08:48:41;;;;;;;8.23;4.05;;;;;;;;;;4958804;28;20533;-77
2022/10/21 08:51:13;;;;;;;8.60;2.70;;;;;;;;;;4963606;28;20035;-78
2022/10/21 08:53:40;;;;;;;5.90;2.40;;;;;;;;;;4970724;28;20033;-79
2022/10/21 08:56:09;;;;;;;6.95;2.90;;;;;;;;;;4968721;28;20110;-78
2022/10/21 08:58:35;;;;;;;11.65;4.13;;;;;;;;;;4982336;28;20069;-77
2022/10/21 09:01:04;;;;;;;9.25;3.22;;;;;;;;;;4963316;28;20057;-78
2022/10/21 09:03:44;;;;;;;12.48;3.17;;;;;;;;;;4966326;28;20077;-78
2022/10/21 09:06:29;;;;;;;8.93;3.50;;;;;;;;;;4968609;28;20057;-78
2022/10/21 09:08:55;;;;;;;;;;;;;;;;;;4968302;28;20103;-78
2022/10/21 09:11:27;;;;;;;10.82;3.50;;;;;;;;;;4967460;28;20041;-78
2022/10/21 09:14:00;;;;;;;9.45;3.10;;;;;;;;;;4968585;28;20094;-79
2022/10/21 09:16:40;;;;;;;9.77;4.50;;;;;;;;;;4973583;28;20023;-79
2022/10/21 09:19:12;;;;;;;8.68;3.88;;;;;;;;;;4962759;28;20085;-77
2022/10/21 09:21:48;;;;;;;9.20;4.10;;;;;;;;;;4966601;28;20097;-78
2022/10/21 09:24:19;;;;;;;10.10;3.00;;;;;;;;;;4964436;28;20107;-77
2022/10/21 09:26:48;;;;;;;13.63;2.88;;;;;;;;;;4967126;28;20038;-79
2022/10/21 09:29:34;;;;;;;10.00;3.05;;;;;;;;;;4986245;28;20122;-79
2022/10/21 09:32:00;;;;;;;;;;;;;;;;;;4969362;28;20041;-79
2022/10/21 09:34:35;;;;;;;17.83;6.05;;;;;;;;;;4972870;28;20029;-76
2022/10/21 09:37:02;;;;;;;9.98;4.13;;;;;;;;;;4967787;28;20567;-78
2022/10/21 09:39:42;;;;;;;10.57;3.67;;;;;;;;;;4966153;28;20027;-78
2022/10/21 09:42:11;;;;;;;14.10;3.83;;;;;;;;;;4971061;28;20476;-77
2022/10/21 09:44:38;;;;;;;17.42;4.05;;;;;;;;;;4966041;28;20027;-77
2022/10/21 09:47:13;;;;;;;13.98;3.88;;;;;;;;;;4966277;28;20382;-80
2022/10/21 09:49:40;;;;;;;13.20;3.90;;;;;;;;;;4967228;28;20030;-79
2022/10/21 09:52:06;;;;;;;9.32;2.85;;;;;;;;;;4965020;28;20370;-78
2022/10/21 09:54:34;;;;;;;7.97;3.33;;;;;;;;;;4964863;28;20028;-78
2022/10/21 09:57:00;;;;;;;9.88;3.15;;;;;;;;;;4965176;28;20027;-78
2022/10/21 09:59:27;;;;;;;7.53;2.70;;;;;;;;;;4964422;28;20019;-77
2022/10/21 10:01:53;;;;;;;7.63;2.30;;;;;;;;;;4958725;28;20412;-77
2022/10/21 10:04:25;;;;;;;8.88;2.70;;;;;;;;;;4967003;28;20047;-78
2022/10/21 10:06:51;;;;;;;4.55;2.60;;;;;;;;;;4968884;28;20148;-78
2022/10/21 10:09:27;;;;;;;4.78;2.78;;;;;;;;;;4965563;28;20027;-78
2022/10/21 10:12:02;;;;;;;5.50;2.47;;;;;;;;;;4964216;28;20038;-77
2022/10/21 10:14:30;;;;;;;3.78;2.50;;;;;;;;;;4961724;28;20385;-78
2022/10/21 10:16:57;;;;;;;6.60;3.05;;;;;;;;;;4961413;28;20034;-78
2022/10/21 10:19:25;;;;;;;4.65;1.88;;;;;;;;;;4962810;28;20035;-78
2022/10/21 10:22:11;;;;;;;4.68;1.90;;;;;;;;;;4969248;28;20235;-79
2022/10/21 10:24:39;;;;;;;4.57;1.90;;;;;;;;;;4966063;28;20127;-78
2022/10/21 10:27:07;;;;;;;5.53;2.00;;;;;;;;;;4966714;28;20477;-77
2022/10/21 10:29:33;;;;;;;4.00;1.88;;;;;;;;;;4965481;28;20378;-77
2022/10/21 10:32:00;;;;;;;3.85;2.22;;;;;;;;;;4961778;28;20034;-79
2022/10/21 10:34:29;;;;;;;5.07;2.25;;;;;;;;;;4976380;28;20058;-78
2022/10/21 10:37:00;;;;;;;7.20;2.35;;;;;;;;;;4986722;28;20031;-78
2022/10/21 10:39:29;;;;;;;9.80;3.97;;;;;;;;;;4968573;28;20091;-77
2022/10/21 10:41:55;;;;;;;8.13;3.22;;;;;;;;;;4963655;28;20027;-79
2022/10/21 10:44:33;;;;;;;5.85;2.78;;;;;;;;;;4962180;28;20082;-78
2022/10/21 10:47:00;;;;;;;5.40;2.60;;;;;;;;;;4962814;28;20637;-78
2022/10/21 10:49:27;;;;;;;9.57;2.85;;;;;;;;;;4965771;28;20027;-78
2022/10/21 10:52:05;;;;;;;7.60;2.30;;;;;;;;;;4966188;28;20066;-78
2022/10/21 10:54:32;;;;;;;4.72;2.20;;;;;;;;;;4961277;28;20158;-78
2022/10/21 10:57:03;;;;;;;6.53;2.95;;;;;;;;;;4963906;28;20032;-79
2022/10/21 10:59:42;;;;;;;7.30;2.50;;;;;;;;;;4963081;28;20035;-77
2022/10/21 11:02:08;;;;;;;8.60;3.00;;;;;;;;;;4960417;28;20031;-78
2022/10/21 11:04:53;;;;;;;8.45;2.42;;;;;;;;;;4963114;28;20058;-79
2022/10/21 11:07:30;;;;;;;10.90;3.63;;;;;;;;;;4962215;28;20109;-78
2022/10/21 11:10:00;;;;;;;5.70;1.95;;;;;;;;;;4961727;28;20023;-78
2022/10/21 11:12:26;;;;;;;7.63;2.20;;;;;;;;;;4966119;28;20023;-77
2022/10/21 11:14:57;;;;;;;6.53;2.22;;;;;;;;;;4980462;28;20022;-77
2022/10/21 11:17:37;;;;;;;9.60;2.20;;;;;;;;;;4960271;28;20027;-78
2022/10/21 11:20:23;;;;;;;4.47;1.90;;;;;;;;;;4960163;28;20203;-78
2022/10/21 11:22:52;;;;;;;6.72;2.13;;;;;;;;;;4965422;28;20023;-77
2022/10/21 11:25:22;;;;;;;6.38;2.83;;;;;;;;;;4962084;28;20114;-77
2022/10/21 11:28:01;;;;;;;5.82;2.33;;;;;;;;;;4965362;28;20160;-77
2022/10/21 11:30:39;;;;;;;6.80;2.33;;;;;;;;;;4958500;28;20034;-77
2022/10/21 11:33:22;;;;;;;3.47;2.10;;;;;;;;;;4968970;28;20062;-78
2022/10/21 11:36:03;;;;;;;6.25;2.72;;;;;;;;;;4964847;28;20182;-77
2022/10/21 11:38:37;;;;;;;6.97;3.13;;;;;;;;;;4966618;28;20030;-78
2022/10/21 11:41:04;;;;;;;4.72;2.45;;;;;;;;;;4964281;28;20551;-78
2022/10/21 11:43:48;;;;;;;9.65;2.88;;;;;;;;;;4963522;28;20517;-78
2022/10/21 11:46:33;;;;;;;8.32;2.55;;;;;;;;;;4959891;28;20876;-79
2022/10/21 11:49:05;;;;;;;9.95;3.08;;;;;;;;;;4959313;28;20049;-78
2022/10/21 11:51:39;;;;;;;7.18;2.70;;;;;;;;;;4956452;28;20458;-80
2022/10/21 11:54:08;;;;;;;5.33;2.70;;;;;;;;;;4959226;28;20027;-78
2022/10/21 11:56:39;;;;;;;9.75;2.70;;;;;;;;;;4961484;28;20045;-78
2022/10/21 11:59:23;;;;;;;9.20;3.50;;;;;;;;;;4959124;28;20518;-80
2022/10/21 12:02:00;;;;;;;9.40;3.20;;;;;;;;;;4971997;28;20035;-79
2022/10/21 12:04:26;;;;;;;10.63;2.55;;;;;;;;;;4953644;28;20054;-79
2022/10/21 12:06:55;;;;;;;7.35;2.50;;;;;;;;;;4962425;28;20121;-80
2022/10/21 12:09:23;;;;;;;5.85;2.88;;;;;;;;;;4956810;28;20042;-82
2022/10/21 12:11:54;;;;;;;10.50;2.80;;;;;;;;;;4958808;28;20039;-80
2022/10/21 12:14:26;;;;;;;8.10;2.47;;;;;;;;;;4957483;28;20449;-80
2022/10/21 12:16:53;;;;;;;4.78;2.30;;;;;;;;;;4974962;28;20027;-78
2022/10/21 12:19:20;;;;;;;8.30;3.35;;;;;;;;;;4963151;28;20070;-79
2022/10/21 12:21:46;;;;;;;7.88;2.80;;;;;;;;;;4955753;28;20039;-77
2022/10/21 12:24:27;;;;;;;10.52;4.13;;;;;;;;;;4962219;28;20033;-81
2022/10/21 12:26:57;;;;;;;9.00;2.75;;;;;;;;;;4958939;28;20038;-80
2022/10/21 12:29:38;;;;;;;11.90;3.40;;;;;;;;;;4952429;28;20089;-79
2022/10/21 12:32:23;;;;;;;5.30;2.60;;;;;;;;;;4956564;28;20035;-79
2022/10/21 12:34:49;;;;;;;9.50;2.60;;;;;;;;;;4954360;28;20085;-80
2022/10/21 12:37:34;;;;;;;6.22;2.53;;;;;;;;;;4953540;28;20042;-80
2022/10/21 12:40:14;;;;;;;10.75;3.03;;;;;;;;;;4957060;28;20105;-80
2022/10/21 12:42:45;;;;;;;6.32;2.40;;;;;;;;;;4955464;28;20513;-79
2022/10/21 12:45:31;;;;;;;13.88;3.58;;;;;;;;;;4956852;28;20327;-77
2022/10/21 12:47:58;;;;;;;9.07;3.47;;;;;;;;;;4958342;28;20066;-79
2022/10/21 12:50:28;;;;;;;9.77;3.35;;;;;;;;;;4959292;28;20035;-79
2022/10/21 12:53:14;;;;;;;9.40;3.10;;;;;;;;;;4960694;28;20027;-77
2022/10/21 12:55:41;;;;;;;7.50;3.30;;;;;;;;;;4964177;28;20027;-78
2022/10/21 12:58:19;;;;;;;8.40;2.95;;;;;;;;;;4967014;28;20027;-78
2022/10/21 13:00:48;;;;;;;10.60;3.20;;;;;;;;;;4966900;28;20179;-79
2022/10/21 13:03:22;;;;;;;12.35;3.60;;;;;;;;;;4961752;28;20114;-77
2022/10/21 13:05:48;;;;;;;12.38;4.22;;;;;;;;;;4967863;28;20089;-76
2022/10/21 13:08:14;;;;;;;19.13;5.57;;;;;;;;;;4965610;28;20062;-76
2022/10/21 13:10:40;;;;;;;9.27;2.88;;;;;;;;;;4964044;28;20116;-76
2022/10/21 13:13:27;;;;;;;9.27;3.45;;;;;;;;;;4962456;28;20035;-77
2022/10/21 13:15:54;;;;;;;11.20;2.65;;;;;;;;;;4957303;28;21028;-77
2022/10/21 13:18:38;;;;;;;11.32;3.83;;;;;;;;;;4957763;28;20030;-76
2022/10/21 13:21:21;;;;;;;9.50;3.92;;;;;;;;;;4960169;28;20402;-76
2022/10/21 13:23:49;;;;;;;14.27;3.42;;;;;;;;;;4959842;28;20035;-77
2022/10/21 13:26:18;;;;;;;11.27;3.08;;;;;;;;;;4967987;28;20035;-77
2022/10/21 13:28:59;;;;;;;15.38;4.25;;;;;;;;;;4969100;28;20193;-77
2022/10/21 13:31:25;;;;;;;11.60;3.10;;;;;;;;;;4966071;28;20038;-77
2022/10/21 13:33:52;;;;;;;11.65;3.85;;;;;;;;;;4964102;28;20033;-77
2022/10/21 13:36:31;;;;;;;12.55;2.90;;;;;;;;;;4961902;28;20421;-77
2022/10/21 13:38:59;;;;;;;6.80;2.75;;;;;;;;;;4961032;28;20034;-77
2022/10/21 13:41:26;;;;;;;14.60;5.18;;;;;;;;;;4961838;28;20031;-77
2022/10/21 13:43:52;;;;;;;7.43;4.18;;;;;;;;;;4966869;28;20106;-77
2022/10/21 13:46:30;;;;;;;10.60;4.22;;;;;;;;;;4964971;28;20031;-76
2022/10/21 13:48:59;;;;;;;10.55;3.33;;;;;;;;;;4963482;28;20031;-76
2022/10/21 13:51:48;;;;;;;9.27;5.05;;;;;;;;;;4960966;28;20035;-78
2022/10/21 13:54:15;;;;;;;12.07;4.20;;;;;;;;;;4954887;28;20058;-76
2022/10/21 13:56:42;;;;;;;6.45;3.65;;;;;;;;;;4963613;28;20054;-76
2022/10/21 13:59:25;;;;;;;8.63;3.38;;;;;;;;;;4960393;28;20753;-76
2022/10/21 14:01:55;;;;;;;7.18;2.97;;;;;;;;;;4966542;28;20045;-76
2022/10/21 14:04:25;;;;;;;10.88;4.40;;;;;;;;;;4966713;28;20058;-77
2022/10/21 14:06:53;;;;;;;8.02;3.17;;;;;;;;;;4969455;28;20031;-76
2022/10/21 14:09:22;;;;;;;9.35;3.40;;;;;;;;;;4963795;28;20034;-76
2022/10/21 14:11:50;;;;;;;9.55;3.83;;;;;;;;;;4964476;28;20468;-76
2022/10/21 14:14:18;;;;;;;12.02;4.13;;;;;;;;;;4963709;28;20390;-77
2022/10/21 14:16:49;;;;;;;10.95;3.58;;;;;;;;;;4977810;28;20019;-75
2022/10/21 14:19:25;;;;;;;19.17;4.57;;;;;;;;;;4966463;28;20027;-76
2022/10/21 14:21:53;;;;;;;18.20;5.15;;;;;;;;;;4966341;28;20050;-76
2022/10/21 14:24:38;;;;;;;10.90;4.65;;;;;;;;;;4965757;28;20047;-76
2022/10/21 14:27:04;;;;;;;12.38;3.33;;;;;;;;;;4966367;28;20114;-76
2022/10/21 14:29:32;;;;;;;15.52;3.72;;;;;;;;;;4965440;28;20153;-76
2022/10/21 14:31:59;;;;;;;11.55;4.25;;;;;;;;;;4964838;28;20030;-76
2022/10/21 14:34:35;;;;;;;18.02;4.90;;;;;;;;;;4964268;28;20030;-77
2022/10/21 14:37:04;;;;;;;11.18;4.00;;;;;;;;;;4966261;28;20157;-76
2022/10/21 14:39:30;;;;;;;14.82;5.50;;;;;;;;;;4963191;28;20050;-77
2022/10/21 14:42:01;;;;;;;15.10;4.30;;;;;;;;;;4970314;28;20534;-78
2022/10/21 14:44:27;;;;;;;16.45;4.85;;;;;;;;;;4968033;28;20513;-77
2022/10/21 14:46:54;;;;;;;10.95;3.47;;;;;;;;;;4969855;28;20035;-78
2022/10/21 14:49:23;;;;;;;8.32;3.35;;;;;;;;;;4967995;28;20039;-78